Drexel, Ohio
Current Conditions -  °F | °C
As of 3:53 PM on Monday 24 Nov 2014 (Local Time) from KMGY Reporting Station
Overcast Overcast  
Wind Chill: 35°   Ceiling: 2700
Heat Index: 43°   Visibility: 10mi
Dew Point: 33°   Wind: 16mph
Humidity: 68%   Direction: 230°SW
Pressure: 29.68"   Gusts: 26mph
Location:  39.7548°N, 84.3084°W
Report Text: KMGY 242053Z AUTO 23014G23KT 10SM OVC027 06/01 A2968 RMK AO2 PK WND 23034/2034 SLP050 T00610006 51048
Loading
Personal Weather Stations






























Interactive Weather Map New forecast layout! Learn more

10-Day Weather Forecast

Advertisements
Track Severe Weather on mobile